Bakersfield, CA (93301)

11:20 PM PST on January 23, 2017 (GMT -0800)
E. Belle Terrace | | Change Station
Active Advisory: Small Craft Advisory

Elev 386 ft 35.35 °N, 118.97 °W | Updated 20 seconds ago

Mostly Cloudy
Mostly Cloudy
41.8 °F
Feels Like 42 °F
N
0.0
Wind Variable Wind from North
Gusts 0.0 mph

Today
High -- | Low -- °F
--% Chance of Precip.
Yesterday
High -- | Low -- °F
Precip. -- in
Pressure 29.95 in
Visibility 10.0 miles
Clouds Few 1900 ft
Mostly Cloudy 4400 ft
Overcast 5500 ft
Windchill 42 °F
Dew Point 40 °F
Humidity 93%
Rainfall 0.18 in
Snow Depth Not available.
7:01 AM 5:15 PM
Waning Crescent, 13% visible
METAR KBFL 240654Z 05004KT 10SM FEW019 BKN044 OVC055 06/03 A2995 RMK AO2 SLP142 T00610033
Pressure 29.95 in
Visibility 10.0 miles
Clouds Few 1900 ft
Mostly Cloudy 4400 ft
Overcast 5500 ft
Windchill 42 °F
Dew Point 40 °F
Humidity 93%
Rainfall 0.18 in
Snow Depth Not available.
7:01 AM 5:15 PM
Waning Crescent, 13% visible
METAR KBFL 240654Z 05004KT 10SM FEW019 BKN044 OVC055 06/03 A2995 RMK AO2 SLP142 T00610033

Get Your Daily Forecast Email!

Thanks for signing up!

Be on the lookout for a verification email in your inbox.

You'll start receiving the daily forecast at 8 AM.

×

10-Day Weather Forecast

Almanac

Astronomy

Jan. 23, 2017 Rise Set
Actual Time
Civil Twilight
Nautical Twilight
Astronomical Twilight
Moon
Length of Visible Light
Length of Day
Tomorrow will be .
, % of the Moon is Illuminated

Today's Extremes

State Highs State Lows

Community

WunderPhotos

Upload Photos

1,962,540 photos uploaded!

WunderBlog® & News

Nearby

Air Quality

  Air Quality AQ Index Pollutant
Not available.

Snow Depth

Station Depth Elevation

Earthquake Activity

City Distance Mag. Time & Date
Minimum magnitude displayed is 2.5.

Coastal Water Temperatures

Place Temperature

Stations

Nearby Weather Stations

Station Location Temp. Windchill Dew Point Humidity Wind Precip. Elev Updated Type
                   

Watches & Warnings

Small Craft Advisory
Issued: 9:03 PM PST Jan. 23, 2017 – National Weather Service

... Small Craft Advisory remains in effect until 6 am PST
Tuesday...

See the coastal waters forecast (cwflox) for more details.

Precautionary/preparedness actions...

A Small Craft Advisory means that hazardous wind and sea
conditions will exist for small craft. Inexperienced
mariners... especially those operating smaller vessels should avoid
navigating in these conditions.